Time;durP1;ratioP1;P1;durP2;ratioP2;P2;SDS_P1;SDS_P2;PMS_P1;PMS_P2;Temp;Humidity;BMP_temperature;BMP_pressure;BME280_temperature;BME280_humidity;BME280_pressure;Samples;Min_cycle;Max_cycle;Signal;HPM_P1;HPM_P2
2023/11/06 00:00:33;;;;;;;6.07;2.60;;;10.60;1.00;;;;;;5088773;28;20336;-84
2023/11/06 00:03:00;;;;;;;7.27;2.90;;;10.60;1.00;;;;;;5102760;28;20746;-86
2023/11/06 00:05:26;;;;;;;4.50;2.30;;;10.60;1.00;;;;;;5101133;28;20680;-86
2023/11/06 00:07:54;;;;;;;7.87;2.80;;;10.60;1.00;;;;;;5092539;28;20208;-84
2023/11/06 00:10:20;;;;;;;7.43;2.87;;;10.50;1.00;;;;;;5089604;28;20238;-85
2023/11/06 00:12:48;;;;;;;5.17;2.07;;;10.60;1.00;;;;;;5099315;28;20194;-84
2023/11/06 00:15:16;;;;;;;8.10;2.60;;;10.60;1.00;;;;;;5100742;28;20673;-85
2023/11/06 00:17:43;;;;;;;4.83;2.30;;;10.60;1.00;;;;;;5101631;28;20620;-85
2023/11/06 00:20:11;;;;;;;7.97;2.57;;;10.70;1.00;;;;;;5100273;28;20213;-87
2023/11/06 00:22:38;;;;;;;5.80;2.33;;;10.60;1.00;;;;;;5102013;28;20262;-85
2023/11/06 00:25:06;;;;;;;5.80;2.47;;;10.60;1.00;;;;;;5085246;28;20319;-85
2023/11/06 00:27:34;;;;;;;3.53;2.20;;;10.50;1.00;;;;;;5101652;28;20201;-85
2023/11/06 00:30:02;;;;;;;4.53;2.00;;;10.50;1.00;;;;;;5093789;28;20221;-85
2023/11/06 00:32:29;;;;;;;4.73;2.10;;;10.40;1.00;;;;;;5080622;28;20194;-85
2023/11/06 00:34:56;;;;;;;3.90;2.10;;;10.30;1.00;;;;;;5090859;28;20203;-84
2023/11/06 00:37:23;;;;;;;7.97;2.60;;;10.30;1.00;;;;;;5096799;28;20201;-85
2023/11/06 00:39:49;;;;;;;5.90;2.30;;;10.50;1.00;;;;;;5101191;28;20222;-85
2023/11/06 00:42:16;;;;;;;6.33;2.20;;;10.50;1.00;;;;;;5100642;28;20228;-84
2023/11/06 00:44:43;;;;;;;5.50;2.60;;;10.40;1.00;;;;;;5097606;28;20213;-84
2023/11/06 00:47:11;;;;;;;5.70;2.00;;;10.40;1.00;;;;;;5101254;28;20206;-84
2023/11/06 00:49:38;;;;;;;5.90;2.40;;;10.30;1.00;;;;;;5100557;28;20636;-86
2023/11/06 00:52:05;;;;;;;6.77;2.40;;;10.30;1.00;;;;;;5094828;28;20195;-83
2023/11/06 00:54:32;;;;;;;4.57;2.30;;;10.30;1.00;;;;;;5084129;28;20600;-84
2023/11/06 00:57:00;;;;;;;5.30;2.60;;;10.30;1.00;;;;;;5092231;28;20200;-84
2023/11/06 00:59:26;;;;;;;3.33;2.10;;;10.40;1.00;;;;;;5100171;28;20309;-83
2023/11/06 01:01:55;;;;;;;4.27;2.20;;;10.30;1.00;;;;;;5101985;28;20198;-84
2023/11/06 01:04:23;;;;;;;2.67;1.70;;;10.30;1.00;;;;;;5086780;28;20256;-85
2023/11/06 01:06:52;;;;;;;4.30;1.63;;;10.40;1.00;;;;;;5081109;28;20212;-85
2023/11/06 01:09:19;;;;;;;2.17;1.60;;;10.40;1.00;;;;;;5080061;28;20222;-85
2023/11/06 01:11:48;;;;;;;4.93;1.60;;;10.30;1.00;;;;;;5090128;28;20205;-85
2023/11/06 01:14:15;;;;;;;6.73;1.80;;;10.30;1.00;;;;;;5100658;28;20657;-86
2023/11/06 01:16:41;;;;;;;5.03;2.00;;;10.30;1.00;;;;;;5100927;28;20292;-84
2023/11/06 01:19:08;;;;;;;4.53;1.70;;;10.20;1.00;;;;;;5099621;28;20193;-84
2023/11/06 01:21:36;;;;;;;4.20;1.60;;;10.30;1.00;;;;;;5100790;28;20541;-83
2023/11/06 01:24:04;;;;;;;5.27;1.83;;;10.30;1.00;;;;;;5100565;28;20202;-84
2023/11/06 01:26:30;;;;;;;4.70;1.60;;;10.40;1.00;;;;;;5100434;28;20606;-84
2023/11/06 01:28:57;;;;;;;3.47;1.60;;;10.40;1.00;;;;;;5094991;28;20206;-84
2023/11/06 01:31:26;;;;;;;6.03;2.03;;;10.50;1.00;;;;;;5096352;28;20213;-84
2023/11/06 01:33:53;;;;;;;5.90;2.00;;;10.50;1.00;;;;;;5097079;28;20201;-85
2023/11/06 01:36:20;;;;;;;5.07;2.07;;;10.50;1.00;;;;;;5102322;28;20560;-85
2023/11/06 01:38:48;;;;;;;6.73;2.67;;;10.40;1.00;;;;;;5097268;28;20283;-85
2023/11/06 01:41:15;;;;;;;5.80;2.23;;;10.40;12.40;;;;;;5099715;28;20217;-84
2023/11/06 01:43:42;;;;;;;4.60;2.00;;;10.40;92.80;;;;;;5084599;28;20202;-86
2023/11/06 01:46:10;;;;;;;7.17;2.53;;;10.40;1.00;;;;;;5093226;28;20206;-84
2023/11/06 01:48:38;;;;;;;7.57;2.40;;;10.40;1.00;;;;;;5086374;28;20486;-85
2023/11/06 01:51:05;;;;;;;5.17;2.30;;;10.40;1.00;;;;;;5087558;28;20622;-84
2023/11/06 01:53:32;;;;;;;6.10;2.23;;;10.40;1.00;;;;;;5100239;28;20281;-86
2023/11/06 01:56:01;;;;;;;3.73;2.40;;;10.40;1.00;;;;;;5099559;28;20200;-85
2023/11/06 01:58:29;;;;;;;8.90;2.70;;;10.50;1.00;;;;;;5086982;28;20214;-83
2023/11/06 02:00:56;;;;;;;8.97;4.17;;;10.40;1.00;;;;;;5098499;28;20226;-85
2023/11/06 02:03:23;;;;;;;4.93;2.20;;;10.50;1.00;;;;;;5091243;28;20205;-85
2023/11/06 02:05:50;;;;;;;6.27;3.20;;;10.50;1.00;;;;;;5095546;28;20485;-84
2023/11/06 02:08:17;;;;;;;7.30;2.37;;;10.50;1.00;;;;;;5079514;28;20202;-84
2023/11/06 02:10:45;;;;;;;3.00;2.00;;;10.40;1.00;;;;;;5091821;28;20218;-85
2023/11/06 02:13:13;;;;;;;3.70;2.30;;;10.40;1.00;;;;;;5091555;28;20221;-85
2023/11/06 02:15:41;;;;;;;7.27;2.50;;;10.30;1.00;;;;;;5099890;28;20563;-83
2023/11/06 02:18:08;;;;;;;5.70;2.63;;;10.40;1.00;;;;;;5080263;28;20198;-84
2023/11/06 02:20:36;;;;;;;6.80;2.80;;;10.40;1.00;;;;;;5089639;28;20222;-84
2023/11/06 02:23:08;;;;;;;8.20;2.40;;;10.50;1.00;;;;;;5099545;28;20697;-84
2023/11/06 02:25:35;;;;;;;5.17;2.10;;;10.70;1.00;;;;;;5099846;28;20222;-84
2023/11/06 02:28:02;;;;;;;4.70;2.43;;;10.60;1.00;;;;;;5097979;28;20285;-85
2023/11/06 02:30:30;;;;;;;6.20;2.50;;;10.50;1.00;;;;;;5091363;28;20716;-85
2023/11/06 02:32:56;;;;;;;3.77;1.90;;;10.60;1.00;;;;;;5092924;28;20198;-84
2023/11/06 02:35:24;;;;;;;5.50;2.40;;;10.60;1.00;;;;;;5099124;28;20451;-84
2023/11/06 02:37:51;;;;;;;5.83;2.30;;;10.60;1.00;;;;;;5100030;28;20209;-83
2023/11/06 02:40:20;;;;;;;6.37;2.40;;;10.60;1.00;;;;;;5099030;28;20251;-85
2023/11/06 02:42:46;;;;;;;5.77;2.10;;;10.80;1.00;;;;;;5097659;28;20212;-85
2023/11/06 02:45:13;;;;;;;4.73;1.97;;;10.60;1.00;;;;;;5097920;28;20217;-83
2023/11/06 02:47:40;;;;;;;4.03;2.07;;;10.70;1.00;;;;;;5099393;28;20209;-85
2023/11/06 02:50:11;;;;;;;6.13;2.63;;;10.80;1.00;;;;;;5098413;28;20225;-84
2023/11/06 02:52:38;;;;;;;4.50;1.97;;;10.70;1.00;;;;;;5098883;28;20260;-86
2023/11/06 02:55:06;;;;;;;6.40;1.73;;;10.70;1.00;;;;;;5092808;28;20190;-84
2023/11/06 02:57:34;;;;;;;4.23;1.90;;;10.70;1.00;;;;;;5086945;28;20216;-86
2023/11/06 03:00:02;;;;;;;4.37;2.03;;;10.80;1.00;;;;;;5097090;28;20581;-83
2023/11/06 03:02:30;;;;;;;5.03;1.80;;;10.70;1.00;;;;;;5084662;28;20204;-85
2023/11/06 03:04:57;;;;;;;2.57;1.90;;;10.60;1.00;;;;;;5078695;28;20422;-85
2023/11/06 03:07:24;;;;;;;3.80;1.90;;;10.60;1.00;;;;;;5079259;28;20206;-83
2023/11/06 03:09:51;;;;;;;5.10;2.07;;;10.50;1.00;;;;;;5093052;28;20305;-86
2023/11/06 03:12:18;;;;;;;4.00;2.23;;;10.50;1.00;;;;;;5099068;28;20724;-84
2023/11/06 03:14:46;;;;;;;3.47;2.30;;;10.60;1.00;;;;;;5099267;28;20582;-84
2023/11/06 03:17:14;;;;;;;3.57;2.20;;;10.50;1.00;;;;;;5098933;28;20224;-85
2023/11/06 03:19:41;;;;;;;7.97;2.13;;;10.40;1.00;;;;;;5096778;28;20214;-84
2023/11/06 03:22:08;;;;;;;4.10;1.70;;;10.40;1.00;;;;;;5096681;28;20590;-85
2023/11/06 03:24:34;;;;;;;8.33;1.90;;;10.40;1.00;;;;;;5102015;28;20657;-84
2023/11/06 03:27:01;;;;;;;4.53;1.40;;;10.30;1.00;;;;;;5102208;28;20224;-84
2023/11/06 03:29:28;;;;;;;7.17;1.97;;;10.30;1.00;;;;;;5096305;28;20218;-85
2023/11/06 03:31:56;;;;;;;6.30;2.40;;;10.40;1.00;;;;;;5096043;28;20264;-86
2023/11/06 03:34:24;;;;;;;2.47;1.43;;;10.40;1.00;;;;;;5101676;28;20205;-86
2023/11/06 03:36:51;;;;;;;5.77;1.90;;;10.30;1.00;;;;;;5096545;28;20221;-85
2023/11/06 03:39:18;;;;;;;5.63;2.10;;;10.30;1.00;;;;;;5099914;28;20895;-84
2023/11/06 03:41:45;;;;;;;7.43;3.07;;;10.30;1.00;;;;;;5089413;28;20198;-84
2023/11/06 03:44:12;;;;;;;2.53;1.87;;;10.30;1.00;;;;;;5096226;28;20212;-85
2023/11/06 03:46:39;;;;;;;4.27;1.80;;;10.10;64.80;;;;;;5096235;28;20222;-84
2023/11/06 03:49:07;;;;;;;6.77;2.00;;;10.20;25.70;;;;;;5097329;28;20281;-84
2023/11/06 03:51:34;;;;;;;4.07;1.90;;;10.30;22.50;;;;;;5085077;28;20197;-84
2023/11/06 03:54:01;;;;;;;5.07;1.80;;;10.30;1.80;;;;;;5098293;28;20196;-85
2023/11/06 03:56:28;;;;;;;6.00;2.20;;;10.30;1.00;;;;;;5099035;28;20221;-84
2023/11/06 03:58:55;;;;;;;4.33;1.90;;;10.20;92.60;;;;;;5083167;28;20763;-84
2023/11/06 04:01:22;;;;;;;4.10;2.00;;;10.30;99.90;;;;;;5081588;28;20308;-84
2023/11/06 04:03:49;;;;;;;7.07;2.80;;;10.30;82.30;;;;;;5082231;28;20209;-84
2023/11/06 04:06:17;;;;;;;5.27;1.90;;;10.40;6.50;;;;;;5097031;28;20213;-82
2023/11/06 04:08:44;;;;;;;7.83;2.50;;;10.30;99.90;;;;;;5101291;28;20205;-84
2023/11/06 04:11:11;;;;;;;6.00;2.60;;;10.30;99.90;;;;;;5101138;28;20226;-83
2023/11/06 04:13:39;;;;;;;5.90;2.10;;;10.40;99.90;;;;;;5100761;28;20301;-82
2023/11/06 04:16:06;;;;;;;5.23;2.23;;;10.50;99.90;;;;;;5100323;28;20197;-83
2023/11/06 04:18:33;;;;;;;5.43;2.47;;;10.50;88.90;;;;;;5100121;28;20202;-83
2023/11/06 04:21:01;;;;;;;3.80;1.73;;;10.60;2.70;;;;;;5099440;28;20213;-84
2023/11/06 04:23:30;;;;;;;4.80;1.67;;;10.60;1.00;;;;;;5099155;28;20210;-86
2023/11/06 04:25:57;;;;;;;6.63;1.87;;;10.60;1.00;;;;;;5093313;28;20252;-86
2023/11/06 04:28:24;;;;;;;13.13;7.77;;;10.80;1.00;;;;;;5098498;28;20193;-85
2023/11/06 04:30:51;;;;;;;6.50;2.47;;;10.70;1.00;;;;;;5100282;28;20626;-85
2023/11/06 04:33:18;;;;;;;2.67;1.63;;;10.70;1.00;;;;;;5100487;28;20255;-85
2023/11/06 04:35:45;;;;;;;3.87;1.63;;;10.80;1.00;;;;;;5099677;28;20205;-85
2023/11/06 04:38:11;;;;;;;3.17;1.53;;;10.60;1.00;;;;;;5100741;28;20263;-84
2023/11/06 04:40:39;;;;;;;5.27;2.20;;;10.60;99.90;;;;;;5100187;28;20617;-85
2023/11/06 04:43:06;;;;;;;3.97;2.17;;;10.50;99.90;;;;;;5088165;28;20206;-85
2023/11/06 04:45:33;;;;;;;6.47;2.57;;;10.40;99.90;;;;;;5079821;28;20599;-85
2023/11/06 04:48:00;;;;;;;5.03;2.00;;;10.40;1.00;;;;;;5098722;28;20204;-85
2023/11/06 04:50:28;;;;;;;5.47;1.83;;;10.30;1.00;;;;;;5100233;28;20228;-86
2023/11/06 04:52:55;;;;;;;2.77;1.80;;;10.10;1.00;;;;;;5084539;28;20213;-83
2023/11/06 04:55:22;;;;;;;3.77;2.03;;;10.10;1.00;;;;;;5084556;28;20238;-84
2023/11/06 04:57:50;;;;;;;3.67;2.10;;;10.30;99.90;;;;;;5100832;28;20236;-84
2023/11/06 05:00:18;;;;;;;3.77;2.03;;;10.30;99.90;;;;;;5100051;28;20225;-85
2023/11/06 05:02:45;;;;;;;4.70;2.30;;;10.40;99.90;;;;;;5101354;28;20194;-84
2023/11/06 05:05:12;;;;;;;7.17;2.30;;;10.30;99.90;;;;;;5100204;28;20657;-84
2023/11/06 05:07:40;;;;;;;5.13;2.47;;;10.40;99.90;;;;;;5099779;28;20236;-84
2023/11/06 05:10:08;;;;;;;6.87;2.40;;;10.50;99.90;;;;;;5099748;28;20233;-85
2023/11/06 05:12:36;;;;;;;4.60;2.30;;;10.40;99.90;;;;;;5099569;28;20201;-85
2023/11/06 05:15:06;;;;;;;7.60;2.07;;;10.50;99.90;;;;;;5099515;28;20626;-86
2023/11/06 05:17:33;;;;;;;5.70;2.90;;;10.60;99.90;;;;;;5098978;28;20280;-84
2023/11/06 05:19:59;;;;;;;4.13;2.40;;;10.60;90.10;;;;;;5087379;28;20721;-84
2023/11/06 05:22:26;;;;;;;3.07;2.30;;;10.60;78.50;;;;;;5094216;28;20233;-85
2023/11/06 05:24:53;;;;;;;3.43;2.50;;;10.50;99.90;;;;;;5098870;28;20197;-84
2023/11/06 05:27:20;;;;;;;3.33;2.00;;;10.40;99.90;;;;;;5082795;28;20229;-85
2023/11/06 05:29:47;;;;;;;5.30;2.13;;;10.40;99.90;;;;;;5090748;28;20722;-83
2023/11/06 05:32:16;;;;;;;6.33;2.60;;;10.40;99.90;;;;;;5090912;28;20198;-85
2023/11/06 05:34:43;;;;;;;4.60;2.50;;;10.30;99.90;;;;;;5090006;28;20205;-84
2023/11/06 05:37:10;;;;;;;6.33;2.67;;;10.40;99.90;;;;;;5099221;28;20217;-85
2023/11/06 05:39:39;;;;;;;5.70;2.60;;;10.40;99.90;;;;;;5098748;28;20220;-85
2023/11/06 05:42:06;;;;;;;4.40;2.77;;;10.40;99.90;;;;;;5097904;28;20619;-85
2023/11/06 05:44:33;;;;;;;4.03;2.23;;;10.40;99.90;;;;;;5090861;28;20237;-84
2023/11/06 05:47:00;;;;;;;5.10;2.43;;;10.40;99.90;;;;;;5094931;28;20210;-83
2023/11/06 05:49:29;;;;;;;5.97;2.50;;;10.40;99.90;;;;;;5077225;28;20226;-84
2023/11/06 05:51:55;;;;;;;3.00;2.40;;;10.30;99.90;;;;;;5082266;28;20206;-84
2023/11/06 05:54:24;;;;;;;8.20;3.10;;;10.40;99.90;;;;;;5092493;28;20210;-84
2023/11/06 05:56:51;;;;;;;6.67;2.90;;;10.30;99.90;;;;;;5096654;28;20289;-86
2023/11/06 05:59:18;;;;;;;3.40;2.50;;;10.30;99.90;;;;;;5097759;28;20669;-85
2023/11/06 06:01:46;;;;;;;5.37;3.00;;;10.40;99.90;;;;;;5088493;28;20265;-86
2023/11/06 06:04:13;;;;;;;6.47;2.47;;;10.30;99.90;;;;;;5096170;28;20205;-85
2023/11/06 06:06:42;;;;;;;5.50;3.00;;;10.30;99.90;;;;;;5097977;28;20308;-85
2023/11/06 06:09:09;;;;;;;7.90;2.80;;;10.30;99.90;;;;;;5095397;28;20296;-84
2023/11/06 06:11:38;;;;;;;5.67;3.10;;;10.50;99.90;;;;;;5097646;28;20208;-85
2023/11/06 06:14:05;;;;;;;5.90;2.97;;;10.30;99.90;;;;;;5089913;28;20202;-85
2023/11/06 06:16:32;;;;;;;6.23;3.23;;;10.30;99.90;;;;;;5093278;28;20201;-84
2023/11/06 06:18:59;;;;;;;5.37;3.53;;;10.40;27.40;;;;;;5097897;28;20206;-85
2023/11/06 06:21:26;;;;;;;5.57;2.63;;;10.40;22.60;;;;;;5086160;28;20193;-83
2023/11/06 06:23:54;;;;;;;6.93;3.00;;;10.40;11.10;;;;;;5097812;28;20660;-85
2023/11/06 06:26:21;;;;;;;5.97;3.20;;;10.50;1.00;;;;;;5097178;28;20603;-85
2023/11/06 06:28:48;;;;;;;3.77;2.50;;;10.50;1.00;;;;;;5086546;28;20282;-85
2023/11/06 06:31:16;;;;;;;6.37;2.70;;;10.40;1.00;;;;;;5083347;28;20224;-86
2023/11/06 06:33:42;;;;;;;7.37;3.20;;;10.50;1.00;;;;;;5097363;28;20610;-85
2023/11/06 06:36:12;;;;;;;6.07;3.10;;;10.50;1.00;;;;;;5097354;28;20202;-84
2023/11/06 06:38:40;;;;;;;8.30;2.97;;;10.50;1.00;;;;;;5080890;28;20665;-85
2023/11/06 06:41:08;;;;;;;5.67;3.10;;;10.50;1.00;;;;;;5076984;28;20229;-85
2023/11/06 06:43:35;;;;;;;7.40;3.10;;;10.50;1.00;;;;;;5091758;28;20212;-85
2023/11/06 06:46:03;;;;;;;3.37;2.70;;;10.50;29.90;;;;;;5096209;28;20190;-84
2023/11/06 06:48:30;;;;;;;6.43;3.17;;;10.40;1.00;;;;;;5095525;28;20232;-84
2023/11/06 06:50:58;;;;;;;6.20;3.20;;;10.60;1.00;;;;;;5096548;28;20221;-86
2023/11/06 06:53:25;;;;;;;6.83;3.23;;;10.50;1.00;;;;;;5095199;28;20570;-85
2023/11/06 06:55:51;;;;;;;7.27;2.60;;;10.50;1.00;;;;;;5093783;28;20259;-85
2023/11/06 06:58:21;;;;;;;6.67;2.73;;;10.50;1.00;;;;;;5095744;28;20251;-85
2023/11/06 07:00:49;;;;;;;6.03;2.70;;;10.60;1.00;;;;;;5096524;28;20274;-84
2023/11/06 07:03:16;;;;;;;3.13;2.33;;;10.50;1.00;;;;;;5095558;28;20215;-84
2023/11/06 07:05:43;;;;;;;7.13;2.57;;;10.60;1.00;;;;;;5093879;28;20228;-84
2023/11/06 07:08:10;;;;;;;4.93;2.40;;;10.70;1.00;;;;;;5097096;28;20307;-84
2023/11/06 07:10:37;;;;;;;6.70;3.07;;;10.70;1.00;;;;;;5090333;28;20656;-85
2023/11/06 07:13:04;;;;;;;7.57;2.40;;;10.70;1.00;;;;;;5087914;28;20232;-85
2023/11/06 07:15:33;;;;;;;4.03;2.60;;;10.70;1.00;;;;;;5096708;28;20206;-85
2023/11/06 07:18:01;;;;;;;4.03;2.40;;;10.70;1.00;;;;;;5095689;28;20742;-85
2023/11/06 07:20:29;;;;;;;3.43;2.20;;;10.80;1.00;;;;;;5093140;28;20735;-86
2023/11/06 07:22:57;;;;;;;7.07;2.60;;;10.70;1.00;;;;;;5084318;28;20206;-83
2023/11/06 07:25:24;;;;;;;4.57;2.40;;;10.80;1.00;;;;;;5095608;28;20296;-84
2023/11/06 07:27:51;;;;;;;5.80;2.10;;;10.90;1.00;;;;;;5092644;28;20316;-84
2023/11/06 07:30:18;;;;;;;5.20;2.13;;;10.80;1.00;;;;;;5094895;28;20291;-84
2023/11/06 07:32:47;;;;;;;6.30;2.20;;;10.80;1.00;;;;;;5094904;28;20213;-85
2023/11/06 07:35:14;;;;;;;4.30;2.30;;;10.80;1.00;;;;;;5081942;28;20198;-83
2023/11/06 07:37:41;;;;;;;5.07;2.40;;;10.90;1.00;;;;;;5093120;28;20204;-85
2023/11/06 07:40:11;;;;;;;6.83;2.50;;;10.90;1.00;;;;;;5089649;28;20658;-84
2023/11/06 07:42:38;;;;;;;4.23;2.10;;;10.90;1.00;;;;;;5094804;28;20197;-85
2023/11/06 07:45:07;;;;;;;3.63;2.80;;;10.90;1.00;;;;;;5084932;28;20229;-85
2023/11/06 07:47:36;;;;;;;4.67;1.87;;;10.80;1.00;;;;;;5084600;28;20222;-85
2023/11/06 07:50:05;;;;;;;5.40;1.80;;;10.90;1.00;;;;;;5095200;28;20221;-83
2023/11/06 07:52:33;;;;;;;5.50;2.10;;;10.90;1.00;;;;;;5087911;28;20216;-84
2023/11/06 07:55:00;;;;;;;6.23;1.70;;;10.90;1.00;;;;;;5094545;28;20198;-85
2023/11/06 07:57:27;;;;;;;5.27;1.57;;;10.90;1.00;;;;;;5089800;28;20666;-84
2023/11/06 07:59:54;;;;;;;4.87;1.90;;;10.90;1.00;;;;;;5089184;28;20749;-86
2023/11/06 08:02:22;;;;;;;4.83;1.90;;;11.00;1.00;;;;;;5088057;28;20205;-83
2023/11/06 08:04:49;;;;;;;6.43;1.60;;;11.00;1.00;;;;;;5097141;28;20293;-85
2023/11/06 08:07:17;;;;;;;4.77;1.70;;;11.00;1.00;;;;;;5096401;28;20692;-85
2023/11/06 08:09:46;;;;;;;3.37;1.37;;;11.00;1.00;;;;;;5090368;28;20575;-86
2023/11/06 08:12:14;;;;;;;3.40;1.60;;;11.10;1.00;;;;;;5100373;28;20323;-84
2023/11/06 08:14:41;;;;;;;2.30;1.33;;;11.00;99.90;;;;;;5100106;28;20202;-84
2023/11/06 08:17:08;;;;;;;5.33;1.77;;;11.00;1.00;;;;;;5099762;28;20192;-85
2023/11/06 08:19:40;;;;;;;2.97;1.40;;;11.00;1.00;;;;;;5100906;28;20230;-84
2023/11/06 08:22:08;;;;;;;6.43;1.80;;;11.10;1.00;;;;;;5098351;28;20197;-85
2023/11/06 08:24:37;;;;;;;3.07;1.33;;;11.20;1.00;;;;;;5099394;28;20288;-84
2023/11/06 08:27:05;;;;;;;4.10;1.30;;;11.20;99.90;;;;;;5099202;28;20217;-85
2023/11/06 08:29:33;;;;;;;6.77;2.23;;;11.20;1.00;;;;;;5099151;28;20313;-84
2023/11/06 08:32:01;;;;;;;5.90;1.43;;;11.30;99.90;;;;;;5099393;28;20198;-84
2023/11/06 08:34:28;;;;;;;3.47;1.50;;;11.20;1.00;;;;;;5083734;28;20571;-85
2023/11/06 08:36:55;;;;;;;3.17;1.30;;;11.20;1.00;;;;;;5097917;28;20762;-83
2023/11/06 08:39:22;;;;;;;5.27;1.33;;;11.20;99.90;;;;;;5098186;28;20697;-81
2023/11/06 08:41:50;;;;;;;4.87;1.40;;;11.20;99.90;;;;;;5097131;28;20208;-81
2023/11/06 08:44:18;;;;;;;1.70;1.00;;;11.20;99.90;;;;;;5094612;28;20189;-81
2023/11/06 08:46:45;;;;;;;2.27;1.10;;;11.20;99.90;;;;;;5094522;28;20575;-81
2023/11/06 08:49:14;;;;;;;3.57;1.40;;;11.20;99.90;;;;;;5095061;28;20213;-81
2023/11/06 08:51:40;;;;;;;5.73;1.43;;;11.30;99.90;;;;;;5097751;28;20828;-80
2023/11/06 08:54:07;;;;;;;2.93;1.17;;;11.30;99.90;;;;;;5090695;28;20194;-81
2023/11/06 08:56:34;;;;;;;4.77;1.37;;;11.30;99.90;;;;;;5092733;28;20247;-81
2023/11/06 08:59:03;;;;;;;7.77;1.90;;;11.40;99.90;;;;;;5085293;28;20285;-81
2023/11/06 09:01:30;;;;;;;5.53;1.37;;;11.40;99.90;;;;;;5089165;28;20285;-82
2023/11/06 09:03:57;;;;;;;2.70;1.17;;;11.40;99.90;;;;;;5091284;28;20222;-81
2023/11/06 09:06:23;;;;;;;2.70;1.07;;;11.40;99.90;;;;;;5093065;28;20198;-81
2023/11/06 09:08:50;;;;;;;5.63;1.40;;;11.40;99.90;;;;;;5094447;28;20217;-81
2023/11/06 09:11:16;;;;;;;4.37;1.37;;;11.40;99.90;;;;;;5091821;28;20214;-81
2023/11/06 09:13:44;;;;;;;2.57;1.17;;;11.40;99.90;;;;;;5090404;28;20293;-82
2023/11/06 09:16:12;;;;;;;7.93;2.80;;;11.40;99.90;;;;;;5086217;28;20209;-80
2023/11/06 09:18:40;;;;;;;4.17;1.90;;;11.40;99.90;;;;;;5088725;28;20221;-81
2023/11/06 09:21:13;;;;;;;5.37;1.70;;;11.50;99.90;;;;;;5095427;28;20296;-81
2023/11/06 09:23:40;;;;;;;9.57;2.77;;;11.50;99.90;;;;;;5098658;28;20224;-80
2023/11/06 09:26:08;;;;;;;8.63;2.30;;;11.50;99.90;;;;;;5098218;28;20212;-81
2023/11/06 09:28:35;;;;;;;3.80;1.57;;;11.50;99.90;;;;;;5091409;28;20226;-82
2023/11/06 09:31:02;;;;;;;4.23;2.00;;;11.60;99.90;;;;;;5096053;28;20232;-81
2023/11/06 09:33:30;;;;;;;5.37;2.30;;;11.60;99.90;;;;;;5092145;28;20665;-81
2023/11/06 09:35:57;;;;;;;7.90;2.00;;;11.60;99.90;;;;;;5095063;28;20243;-80
2023/11/06 09:38:24;;;;;;;3.33;1.87;;;11.60;99.90;;;;;;5091656;28;20197;-81
2023/11/06 09:40:51;;;;;;;5.07;1.90;;;11.70;99.90;;;;;;5095715;28;20229;-81
2023/11/06 09:43:17;;;;;;;5.33;2.10;;;11.70;99.90;;;;;;5096175;28;20288;-81
2023/11/06 09:45:45;;;;;;;8.93;1.90;;;11.70;99.90;;;;;;5098233;28;20201;-80
2023/11/06 09:48:18;;;;;;;6.13;2.10;;;11.80;99.90;;;;;;5098125;28;20697;-81
2023/11/06 09:50:48;;;;;;;4.07;1.60;;;11.90;99.90;;;;;;5097291;28;20233;-81
2023/11/06 09:53:16;;;;;;;6.17;2.00;;;11.90;99.90;;;;;;5096798;28;20289;-82
2023/11/06 09:55:43;;;;;;;5.00;2.20;;;11.90;99.90;;;;;;5091536;28;20194;-81
2023/11/06 09:58:11;;;;;;;12.60;2.47;;;11.90;99.90;;;;;;5097290;28;20280;-81
2023/11/06 10:00:39;;;;;;;10.07;3.53;;;11.80;99.90;;;;;;5097058;28;20245;-80
2023/11/06 10:03:06;;;;;;;9.77;3.10;;;12.00;99.90;;;;;;5096197;28;20209;-81
2023/11/06 10:05:33;;;;;;;7.80;2.43;;;12.20;99.90;;;;;;5089441;28;20253;-81
2023/11/06 10:08:01;;;;;;;5.53;2.53;;;12.80;99.90;;;;;;5097079;28;20232;-80
2023/11/06 10:10:29;;;;;;;9.03;3.47;;;13.00;99.90;;;;;;5096461;28;20221;-80
2023/11/06 10:13:04;;;;;;;9.10;3.27;;;13.20;99.90;;;;;;5093867;28;20644;-81
2023/11/06 10:15:31;;;;;;;10.20;3.07;;;13.50;72.00;;;;;;5094611;28;20247;-81
2023/11/06 10:18:12;;;;;;;9.83;3.00;;;13.60;1.70;;;;;;5096808;28;20280;-82
2023/11/06 10:20:41;;;;;;;6.70;3.30;;;13.40;1.00;;;;;;5095224;28;20692;-82
2023/11/06 10:23:10;;;;;;;5.53;2.40;;;13.70;1.00;;;;;;5096478;28;20225;-81
2023/11/06 10:25:37;;;;;;;7.53;2.90;;;13.60;1.00;;;;;;5095959;28;20197;-81
2023/11/06 10:28:16;;;;;;;8.20;2.67;;;13.60;1.00;;;;;;5086142;28;20214;-81
2023/11/06 10:30:46;;;;;;;8.33;2.77;;;13.30;1.00;;;;;;5095287;28;20229;-80
2023/11/06 10:33:14;;;;;;;5.67;2.10;;;13.20;1.00;;;;;;5087288;28;20189;-80
2023/11/06 10:35:41;;;;;;;8.13;2.73;;;13.50;1.00;;;;;;5093805;28;20198;-80
2023/11/06 10:38:26;;;;;;;8.07;2.63;;;13.70;1.00;;;;;;5096446;28;20199;-82
2023/11/06 10:40:54;;;;;;;5.67;2.73;;;13.80;1.00;;;;;;5087979;28;20229;-81
2023/11/06 10:43:21;;;;;;;7.73;2.77;;;13.70;1.00;;;;;;5094457;28;20292;-80
2023/11/06 10:45:49;;;;;;;6.07;2.57;;;13.40;1.00;;;;;;5089993;28;20206;-80
2023/11/06 10:48:23;;;;;;;7.20;2.50;;;13.10;1.00;;;;;;5083862;28;20255;-79
2023/11/06 10:50:51;;;;;;;10.00;3.20;;;13.00;1.00;;;;;;5077053;28;20237;-78
2023/11/06 10:53:21;;;;;;;7.47;2.83;;;13.00;1.00;;;;;;5076298;28;20201;-79
2023/11/06 10:55:50;;;;;;;7.57;3.40;;;13.30;1.00;;;;;;5081802;28;20189;-80
2023/11/06 10:58:21;;;;;;;7.47;2.77;;;13.20;1.00;;;;;;5078680;28;20196;-80
2023/11/06 11:00:49;;;;;;;7.27;2.53;;;12.90;1.00;;;;;;5079691;28;20225;-79
2023/11/06 11:03:17;;;;;;;8.67;2.50;;;12.70;1.00;;;;;;5090097;28;20224;-79
2023/11/06 11:05:44;;;;;;;7.17;2.50;;;12.70;1.00;;;;;;5095673;28;20259;-79
2023/11/06 11:08:11;;;;;;;5.67;2.17;;;12.80;1.00;;;;;;5093742;28;20225;-79
2023/11/06 11:10:39;;;;;;;9.23;2.43;;;12.70;1.00;;;;;;5093129;28;20223;-79
2023/11/06 11:13:08;;;;;;;9.10;2.60;;;12.90;1.00;;;;;;5094848;28;20201;-80
2023/11/06 11:15:35;;;;;;;9.33;2.60;;;13.10;1.00;;;;;;5091623;28;20223;-80
2023/11/06 11:18:04;;;;;;;8.20;2.30;;;13.30;1.00;;;;;;5094620;28;20204;-80
2023/11/06 11:20:53;;;;;;;6.97;2.13;;;13.30;1.00;;;;;;5093729;28;20225;-79
2023/11/06 11:23:35;;;;;;;8.57;2.53;;;13.40;1.00;;;;;;5094438;28;20194;-80
2023/11/06 11:26:04;;;;;;;6.03;2.30;;;13.50;1.00;;;;;;5094082;28;20202;-80
2023/11/06 11:28:52;;;;;;;10.93;2.47;;;13.40;1.00;;;;;;5093964;28;20221;-81
2023/11/06 11:31:35;;;;;;;9.00;2.77;;;13.20;1.00;;;;;;5091964;28;20221;-79
2023/11/06 11:34:02;;;;;;;9.43;2.27;;;13.20;1.00;;;;;;5090543;28;20209;-79
2023/11/06 11:36:30;;;;;;;8.30;2.20;;;13.20;1.00;;;;;;5093747;28;20198;-79
2023/11/06 11:38:58;;;;;;;7.37;1.90;;;13.20;1.00;;;;;;5086969;28;20233;-79
2023/11/06 11:41:27;;;;;;;5.97;1.87;;;13.40;1.00;;;;;;5089561;28;20208;-78
2023/11/06 11:44:05;;;;;;;7.90;1.70;;;13.20;1.00;;;;;;5093513;28;20204;-79
2023/11/06 11:46:57;;;;;;;8.33;2.63;;;13.10;1.00;;;;;;5096565;28;20200;-79
2023/11/06 11:49:49;;;;;;;7.93;2.10;;;13.10;1.00;;;;;;5095671;28;20221;-79
2023/11/06 11:52:37;;;;;;;5.85;2.00;;;13.10;1.00;;;;;;5089690;28;20194;-78
2023/11/06 11:55:30;;;;;;;5.40;1.60;;;13.00;1.00;;;;;;5088344;28;20206;-79
2023/11/06 11:58:05;;;;;;;8.57;2.70;;;13.10;1.00;;;;;;5095726;28;20197;-80
2023/11/06 12:00:33;;;;;;;6.37;2.20;;;13.10;1.00;;;;;;5086087;28;20648;-79
2023/11/06 12:03:08;;;;;;;4.83;2.00;;;13.10;1.00;;;;;;5087238;28;20190;-79
2023/11/06 12:05:36;;;;;;;8.77;2.50;;;13.00;1.00;;;;;;5086554;28;21007;-79
2023/11/06 12:08:14;;;;;;;9.53;2.20;;;13.00;1.00;;;;;;5096211;28;20221;-80
2023/11/06 12:10:43;;;;;;;8.07;1.80;;;13.00;1.00;;;;;;5096653;28;20225;-80
2023/11/06 12:13:14;;;;;;;7.77;1.80;;;12.90;1.00;;;;;;5084346;28;20586;-79
2023/11/06 12:15:42;;;;;;;7.17;1.97;;;12.90;1.00;;;;;;5098622;28;20198;-80
2023/11/06 12:18:11;;;;;;;7.03;1.90;;;13.00;1.00;;;;;;5084820;28;20199;-79
2023/11/06 12:20:37;;;;;;;8.17;1.70;;;13.00;1.00;;;;;;5088667;28;20272;-81
2023/11/06 12:23:04;;;;;;;4.33;1.60;;;13.00;1.00;;;;;;5082256;28;20588;-80
2023/11/06 12:25:34;;;;;;;5.65;1.45;;;13.10;1.00;;;;;;5098814;28;20227;-79
2023/11/06 12:28:05;;;;;;;5.43;1.57;;;13.20;1.00;;;;;;5080711;28;20225;-79
2023/11/06 12:30:34;;;;;;;5.93;1.57;;;13.20;1.00;;;;;;5095720;28;20240;-79
2023/11/06 12:33:14;;;;;;;7.03;1.45;;;13.10;1.00;;;;;;5086672;28;20202;-78
2023/11/06 12:35:42;;;;;;;4.17;1.20;;;13.10;1.00;;;;;;5081811;28;20225;-77
2023/11/06 12:38:10;;;;;;;6.03;1.60;;;13.20;1.00;;;;;;5096216;28;20786;-78
2023/11/06 12:40:43;;;;;;;4.77;1.40;;;13.30;1.00;;;;;;5094310;28;20251;-79
2023/11/06 12:43:12;;;;;;;5.63;1.80;;;13.00;1.00;;;;;;5090632;28;20237;-79
2023/11/06 12:45:43;;;;;;;8.33;1.70;;;13.00;1.00;;;;;;5092650;28;20201;-79
2023/11/06 12:48:28;;;;;;;7.30;1.57;;;13.00;1.00;;;;;;5089866;28;20317;-79
2023/11/06 12:51:09;;;;;;;4.70;1.30;;;13.10;1.00;;;;;;5089890;28;20240;-79
2023/11/06 12:53:37;;;;;;;5.40;1.27;;;13.10;1.00;;;;;;5092444;28;20259;-78
2023/11/06 12:56:05;;;;;;;3.87;1.17;;;13.10;1.00;;;;;;5089103;28;20576;-79
2023/11/06 12:58:34;;;;;;;4.23;1.20;;;13.20;1.00;;;;;;5093528;28;20209;-79